Time;durP1;ratioP1;P1;durP2;ratioP2;P2;SDS_P1;SDS_P2;PMS_P1;PMS_P2;Temp;Humidity;BMP_temperature;BMP_pressure;BME280_temperature;BME280_humidity;BME280_pressure;Samples;Min_cycle;Max_cycle;Signal;HPM_P1;HPM_P2
2021/03/25 00:02:00;;;;;;;26.37;17.17;;;7.90;56.70;;;;;;5030090;28;20087;-76
2021/03/25 00:04:26;;;;;;;28.53;16.80;;;7.90;56.90;;;;;;5030617;28;20450;-76
2021/03/25 00:06:57;;;;;;;27.43;16.70;;;7.90;57.50;;;;;;5032800;28;20117;-77
2021/03/25 00:09:42;;;;;;;23.80;16.23;;;7.90;57.70;;;;;;5032456;28;20105;-77
2021/03/25 00:12:09;;;;;;;27.47;16.53;;;7.80;57.50;;;;;;5032397;28;20021;-78
2021/03/25 00:14:34;;;;;;;27.43;16.23;;;7.70;57.40;;;;;;5032784;28;20108;-76
2021/03/25 00:17:00;;;;;;;25.87;16.17;;;7.70;57.80;;;;;;5033490;28;20450;-75
2021/03/25 00:19:26;;;;;;;29.00;17.20;;;7.70;58.20;;;;;;5036724;28;20359;-77
2021/03/25 00:21:52;;;;;;;30.60;17.63;;;7.70;58.30;;;;;;5036666;28;20057;-76
2021/03/25 00:24:19;;;;;;;26.87;17.47;;;7.70;57.80;;;;;;5036491;28;20028;-77
2021/03/25 00:26:45;;;;;;;26.50;17.80;;;7.70;57.80;;;;;;5036456;28;20109;-76
2021/03/25 00:29:12;;;;;;;26.80;17.10;;;7.60;57.90;;;;;;5035955;28;20061;-77
2021/03/25 00:31:39;;;;;;;26.37;18.27;;;7.60;58.30;;;;;;5035978;28;20028;-76
2021/03/25 00:34:05;;;;;;;29.87;18.77;;;7.60;58.70;;;;;;5036095;28;20029;-77
2021/03/25 00:36:31;;;;;;;31.40;19.43;;;7.60;58.50;;;;;;5036126;28;20033;-77
2021/03/25 00:38:58;;;;;;;31.40;18.20;;;7.50;58.20;;;;;;5036214;28;20104;-77
2021/03/25 00:41:25;;;;;;;25.17;16.27;;;7.40;59.30;;;;;;5036122;28;20029;-78
2021/03/25 00:43:51;;;;;;;24.47;15.80;;;7.40;59.40;;;;;;5036197;28;20041;-75
2021/03/25 00:46:17;;;;;;;25.43;16.40;;;7.50;59.60;;;;;;5036045;28;20390;-78
2021/03/25 00:48:43;;;;;;;28.47;15.57;;;7.50;59.30;;;;;;5035644;28;20038;-77
2021/03/25 00:51:09;;;;;;;22.87;15.63;;;7.50;59.80;;;;;;5036110;28;20524;-77
2021/03/25 00:56:22;;;;;;;24.03;14.43;;;7.50;59.80;;;;;;5035926;28;20060;-77
2021/03/25 00:58:47;;;;;;;24.83;15.37;;;7.50;59.70;;;;;;5036128;28;20029;-77
2021/03/25 01:01:13;;;;;;;22.17;14.47;;;7.50;59.50;;;;;;5035282;28;20525;-77
2021/03/25 01:03:44;;;;;;;23.13;13.33;;;7.50;60.00;;;;;;5035820;28;20037;-77
2021/03/25 01:06:10;;;;;;;18.77;12.73;;;7.40;59.70;;;;;;5035924;28;20072;-76
2021/03/25 01:08:36;;;;;;;24.03;12.83;;;7.40;60.20;;;;;;5035498;28;20033;-78
2021/03/25 01:11:06;;;;;;;19.83;12.87;;;7.40;60.00;;;;;;5035727;28;20087;-78
2021/03/25 01:13:37;;;;;;;19.23;12.87;;;7.50;59.60;;;;;;5035513;28;20026;-76
2021/03/25 01:16:05;;;;;;;22.30;13.80;;;7.50;59.20;;;;;;5035595;28;20021;-77
2021/03/25 01:18:31;;;;;;;19.77;12.97;;;7.50;59.50;;;;;;5035460;28;20052;-77
2021/03/25 01:20:57;;;;;;;21.30;13.53;;;7.40;59.50;;;;;;5035453;28;20394;-78
2021/03/25 01:23:24;;;;;;;22.27;13.27;;;7.50;59.40;;;;;;5035467;28;20032;-75
2021/03/25 01:25:50;;;;;;;25.27;14.63;;;7.40;59.30;;;;;;5035392;28;20025;-78
2021/03/25 01:28:17;;;;;;;26.30;14.53;;;7.40;59.20;;;;;;5034687;28;20486;-77
2021/03/25 01:30:44;;;;;;;19.47;13.97;;;7.40;59.10;;;;;;5035160;28;20482;-77
2021/03/25 01:33:13;;;;;;;19.50;13.40;;;7.40;58.30;;;;;;5035240;28;20386;-77
2021/03/25 01:35:40;;;;;;;30.00;13.33;;;7.40;58.10;;;;;;5034986;28;20057;-77
2021/03/25 01:38:11;;;;;;;19.27;13.70;;;7.30;58.90;;;;;;5035104;28;20557;-76
2021/03/25 01:40:52;;;;;;;23.70;13.73;;;7.30;58.00;;;;;;5035018;28;20030;-77
2021/03/25 01:43:27;;;;;;;21.27;12.53;;;7.30;57.80;;;;;;5035185;28;20029;-77
2021/03/25 01:46:14;;;;;;;17.50;11.80;;;7.30;57.50;;;;;;5034940;28;20030;-77
2021/03/25 01:48:40;;;;;;;19.73;11.90;;;7.20;58.00;;;;;;5034879;28;20056;-77
2021/03/25 01:51:19;;;;;;;18.67;11.67;;;7.20;58.30;;;;;;5034889;28;20030;-77
2021/03/25 01:54:06;;;;;;;19.17;10.73;;;7.10;57.40;;;;;;5034499;28;20029;-76
2021/03/25 01:57:01;;;;;;;14.83;10.40;;;7.00;57.60;;;;;;5034903;28;20030;-77
2021/03/25 01:59:40;;;;;;;23.07;11.30;;;7.00;57.80;;;;;;5022833;28;20565;-76
2021/03/25 02:02:53;;;;;;;17.23;10.77;;;6.90;57.90;;;;;;5032173;28;20045;-76
2021/03/25 02:05:47;;;;;;;17.17;10.43;;;6.90;58.20;;;;;;5014530;28;20124;-77
2021/03/25 02:08:47;;;;;;;18.90;9.77;;;6.90;58.40;;;;;;5034468;28;20478;-77
2021/03/25 02:11:50;;;;;;;19.03;10.47;;;6.80;58.50;;;;;;5034402;28;20030;-77
2021/03/25 02:14:21;;;;;;;16.40;10.43;;;6.80;58.60;;;;;;5034372;28;20025;-77
2021/03/25 02:17:09;;;;;;;22.53;10.90;;;6.80;58.70;;;;;;5034111;28;20037;-74
2021/03/25 02:20:13;;;;;;;18.70;11.40;;;6.70;58.70;;;;;;5034451;28;20037;-76
2021/03/25 02:23:32;;;;;;;20.10;12.37;;;6.70;59.00;;;;;;5018978;28;20059;-77
2021/03/25 02:26:05;;;;;;;18.60;11.80;;;6.70;59.10;;;;;;5004611;28;20171;-75
2021/03/25 02:28:50;;;;;;;21.63;12.37;;;6.70;59.40;;;;;;5034018;28;20041;-77
2021/03/25 02:31:24;;;;;;;19.73;11.87;;;6.70;59.70;;;;;;5034387;28;20103;-78
2021/03/25 02:33:53;;;;;;;20.70;11.70;;;6.60;60.00;;;;;;5034346;28;20036;-77
2021/03/25 02:36:29;;;;;;;18.03;10.93;;;6.60;60.30;;;;;;5016301;28;20033;-77
2021/03/25 02:39:04;;;;;;;21.93;11.43;;;6.50;59.80;;;;;;5034297;28;20497;-77
2021/03/25 02:41:36;;;;;;;22.63;12.63;;;6.50;60.00;;;;;;5034203;28;20029;-77
2021/03/25 02:44:09;;;;;;;20.10;11.67;;;6.50;60.10;;;;;;5033688;28;20048;-77
2021/03/25 02:46:41;;;;;;;;;;;6.50;59.80;;;;;;5017106;28;20029;-75
2021/03/25 02:49:10;;;;;;;17.50;11.23;;;6.50;59.50;;;;;;5033741;28;20003;-77
2021/03/25 02:51:40;;;;;;;20.90;11.60;;;6.50;59.70;;;;;;5033350;28;20407;-75
2021/03/25 02:54:06;;;;;;;15.87;10.40;;;6.40;60.30;;;;;;5033640;28;20034;-77
2021/03/25 02:56:49;;;;;;;20.40;11.70;;;6.40;60.30;;;;;;5033928;28;20104;-77
2021/03/25 02:59:21;;;;;;;20.75;11.70;;;6.30;60.50;;;;;;5033173;28;20083;-75
2021/03/25 03:01:51;;;;;;;18.33;12.02;;;6.30;61.00;;;;;;5033771;28;20100;-77
2021/03/25 03:04:38;;;;;;;18.90;12.13;;;6.30;61.20;;;;;;5033346;28;20017;-76
2021/03/25 03:07:07;;;;;;;20.03;12.87;;;6.30;60.90;;;;;;5032529;28;20045;-77
2021/03/25 03:09:41;;;;;;;23.70;13.07;;;6.40;61.00;;;;;;5033358;28;20064;-76
2021/03/25 03:12:21;;;;;;;18.80;12.23;;;6.40;61.10;;;;;;5033307;28;20036;-75
2021/03/25 03:14:52;;;;;;;18.87;11.97;;;6.30;61.30;;;;;;5033532;28;20030;-76
2021/03/25 03:17:29;;;;;;;22.77;12.90;;;6.30;61.90;;;;;;5033294;28;20141;-77
2021/03/25 03:20:09;;;;;;;19.30;12.80;;;6.30;62.00;;;;;;5033122;28;20033;-77
2021/03/25 03:22:37;;;;;;;18.40;12.63;;;6.30;61.90;;;;;;5033186;28;20059;-75
2021/03/25 03:25:19;;;;;;;21.93;13.33;;;6.30;62.50;;;;;;5033372;28;20124;-76
2021/03/25 03:27:47;;;;;;;21.13;12.53;;;6.20;63.50;;;;;;5032985;28;20056;-77
2021/03/25 03:30:29;;;;;;;17.77;12.73;;;6.20;62.80;;;;;;5033377;28;20390;-75
2021/03/25 03:33:05;;;;;;;19.63;13.38;;;6.20;62.80;;;;;;5033090;28;20116;-77
2021/03/25 03:35:47;;;;;;;20.37;12.00;;;6.20;62.90;;;;;;5032927;28;20026;-77
2021/03/25 03:38:18;;;;;;;18.53;12.37;;;6.30;62.50;;;;;;5032884;28;20486;-77
2021/03/25 03:40:49;;;;;;;21.63;11.83;;;6.20;62.20;;;;;;5032955;28;20029;-77
2021/03/25 03:43:15;;;;;;;25.43;13.10;;;6.20;62.60;;;;;;5033109;28;20042;-77
2021/03/25 03:46:01;;;;;;;24.70;12.40;;;6.20;62.50;;;;;;5033033;28;20033;-75
2021/03/25 03:48:38;;;;;;;18.27;12.23;;;6.10;62.70;;;;;;5032337;28;20054;-77
2021/03/25 03:51:07;;;;;;;17.53;11.73;;;6.20;62.60;;;;;;5032657;28;20018;-77
2021/03/25 03:53:33;;;;;;;18.33;11.67;;;6.20;62.60;;;;;;5032706;28;20032;-77
2021/03/25 03:56:28;;;;;;;16.97;11.73;;;6.20;62.40;;;;;;5032534;28;20017;-77
2021/03/25 03:58:57;;;;;;;22.57;12.37;;;6.20;62.00;;;;;;5014291;28;20037;-76
2021/03/25 04:01:47;;;;;;;21.77;12.87;;;6.20;62.10;;;;;;5032797;28;20033;-76
2021/03/25 04:04:38;;;;;;;31.20;12.50;;;6.20;62.00;;;;;;5032976;28;20032;-76
2021/03/25 04:07:09;;;;;;;25.70;12.50;;;6.10;61.50;;;;;;5032878;28;20025;-77
2021/03/25 04:09:40;;;;;;;18.40;11.93;;;6.20;61.70;;;;;;5032701;28;20065;-76
2021/03/25 04:12:16;;;;;;;19.77;11.20;;;6.10;61.80;;;;;;5032848;28;20025;-77
2021/03/25 04:14:46;;;;;;;21.30;11.50;;;6.10;61.60;;;;;;5033027;28;20378;-77
2021/03/25 04:17:23;;;;;;;27.83;12.20;;;6.10;61.50;;;;;;5032557;28;20052;-77
2021/03/25 04:19:51;;;;;;;17.63;11.50;;;6.00;61.60;;;;;;5032777;28;20057;-76
2021/03/25 04:22:21;;;;;;;24.03;12.23;;;6.00;61.50;;;;;;5032539;28;20037;-77
2021/03/25 04:24:54;;;;;;;18.03;11.63;;;5.90;61.60;;;;;;5032636;28;20502;-77
2021/03/25 04:27:24;;;;;;;18.10;11.77;;;5.90;61.70;;;;;;5032619;28;20029;-77
2021/03/25 04:29:59;;;;;;;18.40;10.43;;;5.90;61.40;;;;;;5032474;28;20029;-77
2021/03/25 04:32:26;;;;;;;21.57;13.23;;;5.90;61.40;;;;;;5032398;28;20025;-77
2021/03/25 04:34:52;;;;;;;22.23;11.33;;;5.80;61.40;;;;;;5032365;28;20028;-77
2021/03/25 04:37:20;;;;;;;20.47;10.63;;;5.80;61.50;;;;;;5032561;28;20160;-77
2021/03/25 04:39:48;;;;;;;22.00;11.47;;;5.70;61.70;;;;;;5032435;28;20032;-76
2021/03/25 04:42:15;;;;;;;18.07;11.73;;;5.70;61.70;;;;;;5032315;28;20030;-77
2021/03/25 04:44:51;;;;;;;18.90;11.23;;;5.70;62.20;;;;;;5032446;28;20022;-77
2021/03/25 04:47:24;;;;;;;18.27;11.37;;;5.60;62.20;;;;;;5032579;28;20055;-77
2021/03/25 04:49:57;;;;;;;18.27;11.70;;;5.60;62.20;;;;;;5032222;28;20547;-75
2021/03/25 04:52:31;;;;;;;18.58;10.93;;;5.50;62.60;;;;;;5032559;28;20029;-76
2021/03/25 04:55:16;;;;;;;22.87;11.40;;;5.40;62.90;;;;;;5032479;28;20032;-76
2021/03/25 04:57:49;;;;;;;24.23;11.27;;;5.40;63.00;;;;;;5014554;28;20036;-76
2021/03/25 05:00:18;;;;;;;24.50;11.70;;;5.40;63.20;;;;;;5032069;28;20100;-77
2021/03/25 05:02:43;;;;;;;21.30;11.20;;;5.40;63.40;;;;;;5031964;28;20097;-76
2021/03/25 05:05:17;;;;;;;20.80;11.77;;;5.40;63.20;;;;;;5034984;28;20549;-76
2021/03/25 05:07:46;;;;;;;22.70;11.67;;;5.40;63.30;;;;;;5035608;28;20025;-77
2021/03/25 05:10:21;;;;;;;18.63;11.47;;;5.40;63.60;;;;;;5035617;28;20547;-75
2021/03/25 05:12:52;;;;;;;17.90;10.67;;;5.40;63.50;;;;;;5035305;28;20031;-76
2021/03/25 05:15:20;;;;;;;21.43;11.13;;;5.40;63.20;;;;;;5035502;28;20025;-74
2021/03/25 05:18:13;;;;;;;24.67;11.67;;;5.40;63.30;;;;;;5035379;28;20087;-76
2021/03/25 05:21:05;;;;;;;27.93;10.93;;;5.40;63.30;;;;;;5035619;28;20018;-76
2021/03/25 05:23:33;;;;;;;27.93;11.50;;;5.40;63.40;;;;;;5035723;28;20028;-76
2021/03/25 05:26:25;;;;;;;23.40;10.77;;;5.40;63.50;;;;;;5035087;28;20025;-76
2021/03/25 05:28:59;;;;;;;24.93;12.23;;;5.40;63.80;;;;;;5035041;28;20033;-76
2021/03/25 05:31:28;;;;;;;25.63;13.20;;;5.40;64.00;;;;;;5034081;28;20022;-75
2021/03/25 05:33:56;;;;;;;27.50;12.33;;;5.40;64.00;;;;;;5034330;28;20029;-75
2021/03/25 05:36:22;;;;;;;28.93;12.87;;;5.40;64.20;;;;;;5033421;28;20057;-75
2021/03/25 05:38:48;;;;;;;24.07;13.20;;;5.40;64.10;;;;;;5034402;28;20079;-75
2021/03/25 05:41:26;;;;;;;29.77;12.37;;;5.40;64.00;;;;;;5033873;28;20033;-75
2021/03/25 05:44:12;;;;;;;27.90;13.03;;;5.40;64.00;;;;;;5035080;28;20030;-76
2021/03/25 05:46:45;;;;;;;22.33;12.50;;;5.50;64.50;;;;;;5033620;28;20029;-76
2021/03/25 05:49:34;;;;;;;27.85;12.70;;;5.50;64.80;;;;;;5033605;28;20045;-75
2021/03/25 05:52:24;;;;;;;21.77;12.30;;;5.50;64.90;;;;;;5014404;28;20030;-75
2021/03/25 05:55:01;;;;;;;24.30;12.70;;;5.50;65.00;;;;;;5034198;28;20033;-76
2021/03/25 05:57:52;;;;;;;23.30;12.40;;;5.60;65.30;;;;;;5034126;28;20123;-77
2021/03/25 06:00:50;;;;;;;33.50;12.97;;;5.70;65.10;;;;;;5034393;28;20444;-74
2021/03/25 06:03:18;;;;;;;24.93;11.17;;;5.70;65.60;;;;;;5033253;28;20056;-75
2021/03/25 06:05:48;;;;;;;17.20;11.20;;;5.80;65.50;;;;;;5033097;28;20502;-73
2021/03/25 06:08:19;;;;;;;22.00;10.23;;;5.90;65.10;;;;;;5033373;28;20167;-76
2021/03/25 06:11:04;;;;;;;18.63;10.40;;;5.90;64.60;;;;;;5033210;28;20058;-73
2021/03/25 06:13:42;;;;;;;20.57;10.00;;;6.00;64.90;;;;;;5034028;28;20104;-77
2021/03/25 06:16:27;;;;;;;13.50;9.20;;;6.10;64.80;;;;;;5033881;28;20029;-74
2021/03/25 06:19:02;;;;;;;17.13;9.43;;;6.20;64.90;;;;;;5034121;28;20037;-77
2021/03/25 06:22:24;;;;;;;16.70;9.13;;;6.30;64.90;;;;;;5034066;28;20100;-73
2021/03/25 06:25:08;;;;;;;18.93;10.20;;;6.30;64.80;;;;;;5003615;28;20049;-74
2021/03/25 06:27:52;;;;;;;24.53;10.57;;;6.50;65.30;;;;;;5016177;28;20033;-73
2021/03/25 06:30:30;;;;;;;21.90;10.93;;;6.50;64.30;;;;;;5032747;28;20029;-74
2021/03/25 06:33:11;;;;;;;16.20;10.70;;;6.60;64.30;;;;;;5033133;28;20071;-74
2021/03/25 06:35:50;;;;;;;16.67;10.47;;;6.70;64.20;;;;;;5033204;28;20029;-74
2021/03/25 06:38:18;;;;;;;26.00;10.57;;;6.80;63.70;;;;;;5033479;28;20087;-74
2021/03/25 06:40:58;;;;;;;33.67;11.53;;;6.80;63.80;;;;;;5034242;28;20072;-73
2021/03/25 06:43:30;;;;;;;23.20;12.27;;;6.90;63.70;;;;;;5034097;28;20022;-74
2021/03/25 06:46:03;;;;;;;36.92;14.02;;;7.00;63.50;;;;;;5033482;28;20037;-74
2021/03/25 06:48:49;;;;;;;26.40;13.83;;;7.10;63.60;;;;;;5033150;28;20053;-74
2021/03/25 06:51:21;;;;;;;27.70;13.87;;;7.10;62.80;;;;;;5033444;28;20026;-73
2021/03/25 06:53:47;;;;;;;27.00;13.33;;;7.20;62.50;;;;;;5033441;28;20386;-74
2021/03/25 06:56:22;;;;;;;32.80;14.60;;;7.20;62.10;;;;;;5033028;28;20029;-74
2021/03/25 06:58:54;;;;;;;29.03;12.97;;;7.20;62.50;;;;;;5031797;28;20025;-76
2021/03/25 07:01:35;;;;;;;30.75;12.98;;;7.30;62.10;;;;;;5032645;28;20054;-75
2021/03/25 07:04:24;;;;;;;39.20;14.90;;;7.40;62.20;;;;;;5031659;28;20055;-74
2021/03/25 07:06:52;;;;;;;31.00;13.00;;;7.40;62.50;;;;;;5032815;28;20029;-74
2021/03/25 07:09:25;;;;;;;30.73;12.67;;;7.50;62.60;;;;;;5032942;28;20117;-76
2021/03/25 07:11:50;;;;;;;27.77;12.80;;;7.60;62.90;;;;;;5014678;28;20025;-73
2021/03/25 07:14:39;;;;;;;23.70;12.33;;;7.70;62.90;;;;;;5031609;28;20025;-75
2021/03/25 07:17:09;;;;;;;26.63;13.00;;;7.80;62.70;;;;;;5030809;28;20044;-74
2021/03/25 07:19:36;;;;;;;18.37;12.30;;;7.90;62.60;;;;;;5012960;28;20060;-83
2021/03/25 07:22:21;;;;;;;20.67;11.33;;;7.90;62.90;;;;;;5032187;28;20022;-74
2021/03/25 07:24:52;;;;;;;25.47;12.20;;;8.00;62.70;;;;;;5033390;28;20109;-73
2021/03/25 07:27:35;;;;;;;37.07;11.87;;;8.20;62.30;;;;;;5032593;28;20029;-76
2021/03/25 07:30:06;;;;;;;19.70;10.87;;;8.30;62.20;;;;;;5032997;28;20489;-80
2021/03/25 07:32:47;;;;;;;19.50;11.33;;;8.40;61.60;;;;;;5033258;28;20540;-73
2021/03/25 07:35:30;;;;;;;26.73;11.20;;;8.50;61.20;;;;;;5033251;28;20025;-80
2021/03/25 07:38:00;;;;;;;16.90;10.15;;;8.60;61.00;;;;;;5031501;28;20050;-76
2021/03/25 07:40:35;;;;;;;18.50;9.53;;;8.70;60.90;;;;;;5030145;28;20068;-79
2021/03/25 07:43:21;;;;;;;14.83;8.93;;;8.90;60.40;;;;;;5031629;28;20025;-77
2021/03/25 07:45:47;;;;;;;14.17;8.90;;;9.00;59.50;;;;;;5033136;28;20022;-76
2021/03/25 07:48:25;;;;;;;16.83;8.60;;;9.10;58.90;;;;;;5031277;28;20037;-79
2021/03/25 07:51:08;;;;;;;14.40;8.70;;;9.20;58.60;;;;;;5031810;28;20029;-76
2021/03/25 07:53:33;;;;;;;12.40;9.10;;;9.30;58.20;;;;;;5014273;28;20108;-77
2021/03/25 07:56:14;;;;;;;15.27;9.73;;;9.30;58.10;;;;;;5030974;28;20097;-78
2021/03/25 07:58:43;;;;;;;24.00;10.50;;;9.50;57.80;;;;;;5032352;28;20033;-78
2021/03/25 08:01:20;;;;;;;20.30;10.03;;;9.60;57.40;;;;;;5016270;28;20036;-78
2021/03/25 08:03:53;;;;;;;16.90;10.30;;;;;;;;;;5019769;28;20033;-77
2021/03/25 08:06:38;;;;;;;16.17;10.63;;;9.80;56.60;;;;;;5017576;28;20478;-76
2021/03/25 08:09:04;;;;;;;18.27;10.07;;;;;;;;;;5039280;28;20041;-78
2021/03/25 08:11:31;;;;;;;21.50;9.53;;;9.90;56.00;;;;;;5038477;28;20025;-79
2021/03/25 08:14:25;;;;;;;20.77;10.03;;;10.00;56.20;;;;;;5026301;28;20026;-78
2021/03/25 08:16:55;;;;;;;22.77;10.40;;;10.10;56.00;;;;;;4994500;28;20394;-79
2021/03/25 08:19:48;;;;;;;18.93;9.80;;;10.20;55.60;;;;;;5012530;28;20057;-79
2021/03/25 08:22:22;;;;;;;18.55;9.63;;;10.30;55.10;;;;;;5012473;28;20025;-77
2021/03/25 08:24:54;;;;;;;17.33;10.23;;;10.40;55.20;;;;;;5012359;28;20533;-77
2021/03/25 08:27:29;;;;;;;16.77;10.63;;;10.40;55.60;;;;;;5012632;28;20018;-76
2021/03/25 08:30:49;;;;;;;18.63;10.90;;;10.60;55.70;;;;;;5012171;28;20485;-77
2021/03/25 08:33:23;;;;;;;16.43;10.13;;;10.70;54.40;;;;;;5012568;28;20045;-78
2021/03/25 08:36:16;;;;;;;20.20;9.57;;;10.70;54.60;;;;;;5012109;28;20025;-77
2021/03/25 08:39:09;;;;;;;19.67;10.38;;;10.80;53.90;;;;;;5014116;28;20030;-77
2021/03/25 08:41:47;;;;;;;17.27;9.60;;;11.00;53.70;;;;;;5016186;28;20430;-77
2021/03/25 08:44:44;;;;;;;17.23;10.23;;;11.00;53.50;;;;;;5015839;28;20030;-76
2021/03/25 08:47:28;;;;;;;18.57;10.13;;;11.10;53.10;;;;;;4980386;28;20084;-78
2021/03/25 08:50:02;;;;;;;18.13;10.17;;;11.20;53.40;;;;;;5015734;28;20501;-77
2021/03/25 08:52:34;;;;;;;21.73;10.63;;;11.20;53.90;;;;;;5015999;28;20418;-77
2021/03/25 08:55:09;;;;;;;14.17;9.80;;;11.30;53.60;;;;;;5016032;28;20029;-76
2021/03/25 08:57:37;;;;;;;15.23;9.85;;;11.40;53.40;;;;;;5015725;28;20112;-77
2021/03/25 09:00:16;;;;;;;13.80;9.20;;;11.50;53.20;;;;;;5015492;28;20032;-76
2021/03/25 09:02:53;;;;;;;16.38;9.35;;;11.60;52.80;;;;;;5015957;28;20030;-76
2021/03/25 09:05:32;;;;;;;15.68;9.20;;;11.80;52.00;;;;;;5015611;28;20044;-77
2021/03/25 09:08:00;;;;;;;17.20;8.82;;;11.80;51.00;;;;;;5015132;28;20057;-77
2021/03/25 09:10:28;;;;;;;17.17;9.07;;;11.90;50.70;;;;;;5015522;28;20057;-78
2021/03/25 09:12:55;;;;;;;15.18;9.02;;;11.90;49.90;;;;;;5015544;28;20037;-77
2021/03/25 09:15:20;;;;;;;15.23;9.38;;;12.00;50.10;;;;;;5032121;28;20057;-78
2021/03/25 09:17:57;;;;;;;17.08;9.30;;;12.10;49.70;;;;;;5013946;28;20553;-78
2021/03/25 09:20:32;;;;;;;16.13;8.48;;;12.20;49.80;;;;;;5015285;28;20057;-77
2021/03/25 09:23:00;;;;;;;14.02;9.73;;;12.30;48.60;;;;;;5015510;28;20101;-78
2021/03/25 09:25:26;;;;;;;17.48;10.57;;;12.30;48.90;;;;;;5015463;28;20541;-77
2021/03/25 09:28:00;;;;;;;16.30;10.07;;;12.40;47.90;;;;;;5015092;28;20026;-78
2021/03/25 09:30:52;;;;;;;17.50;11.02;;;12.50;47.30;;;;;;5015360;28;20088;-78
2021/03/25 09:33:45;;;;;;;17.25;10.38;;;12.60;46.90;;;;;;5011912;28;20072;-77
2021/03/25 09:36:17;;;;;;;14.15;10.25;;;12.70;47.40;;;;;;5014772;28;20084;-78
2021/03/25 09:38:43;;;;;;;14.20;10.05;;;12.80;47.30;;;;;;5015085;28;20041;-76
2021/03/25 09:41:17;;;;;;;16.58;10.68;;;12.80;46.20;;;;;;5014954;28;20060;-79
2021/03/25 09:43:43;;;;;;;21.10;11.10;;;12.90;47.10;;;;;;5014858;28;20371;-80
2021/03/25 09:46:30;;;;;;;13.82;10.27;;;13.00;47.20;;;;;;5014754;28;20025;-78
2021/03/25 09:48:58;;;;;;;18.27;12.23;;;13.10;46.70;;;;;;5014848;28;20411;-77
2021/03/25 09:51:29;;;;;;;18.23;11.20;;;13.10;46.60;;;;;;5014324;28;20471;-77
2021/03/25 09:53:59;;;;;;;16.98;11.45;;;13.30;47.20;;;;;;5014202;28;20022;-76
2021/03/25 09:56:27;;;;;;;17.50;11.15;;;13.30;47.10;;;;;;5012900;28;20010;-79
2021/03/25 09:58:53;;;;;;;14.48;9.43;;;13.40;46.90;;;;;;5014002;28;20394;-77
2021/03/25 10:01:47;;;;;;;19.10;10.10;;;13.50;45.00;;;;;;5014026;28;20049;-76
2021/03/25 10:04:32;;;;;;;13.55;9.70;;;13.60;44.40;;;;;;5013719;28;20104;-77
2021/03/25 10:07:09;;;;;;;14.95;10.02;;;13.70;44.90;;;;;;5014402;28;20026;-78
2021/03/25 10:09:47;;;;;;;16.23;10.15;;;13.80;45.00;;;;;;5014280;28;20038;-78
2021/03/25 10:12:13;;;;;;;14.05;10.55;;;13.80;44.80;;;;;;5014408;28;20022;-76
2021/03/25 10:14:48;;;;;;;14.15;9.57;;;13.90;43.70;;;;;;5014504;28;20060;-76
2021/03/25 10:17:45;;;;;;;17.17;10.18;;;14.00;43.70;;;;;;5023287;28;20045;-78
2021/03/25 10:20:32;;;;;;;19.08;10.10;;;14.10;43.80;;;;;;5033782;28;20033;-75
2021/03/25 10:22:58;;;;;;;15.05;10.23;;;14.20;43.70;;;;;;5034173;28;20076;-75
2021/03/25 10:25:28;;;;;;;13.77;9.43;;;14.30;43.90;;;;;;5034175;28;20425;-78
2021/03/25 10:27:59;;;;;;;14.82;9.55;;;14.40;44.80;;;;;;5034609;28;20431;-76
2021/03/25 10:30:32;;;;;;;14.98;10.88;;;14.50;45.10;;;;;;5034547;28;20148;-75
2021/03/25 10:33:03;;;;;;;12.98;9.45;;;14.60;44.80;;;;;;5034170;28;20030;-76
2021/03/25 10:35:34;;;;;;;16.00;10.73;;;14.70;43.90;;;;;;5034339;28;20413;-75
2021/03/25 10:38:06;;;;;;;14.82;10.05;;;14.80;43.10;;;;;;5033974;28;20032;-76
2021/03/25 10:40:34;;;;;;;16.55;9.38;;;14.80;43.40;;;;;;5034373;28;20079;-77
2021/03/25 10:43:02;;;;;;;15.48;10.23;;;14.90;43.10;;;;;;5016525;28;20079;-75
2021/03/25 10:45:45;;;;;;;16.30;9.98;;;15.00;41.30;;;;;;5034222;28;20026;-78
2021/03/25 10:48:32;;;;;;;20.35;11.27;;;15.10;40.80;;;;;;5034376;28;20037;-75
2021/03/25 10:51:03;;;;;;;17.52;10.60;;;15.10;39.10;;;;;;5033963;28;20104;-75
2021/03/25 10:53:40;;;;;;;18.83;10.80;;;15.20;42.50;;;;;;5033969;28;20088;-75
2021/03/25 10:56:24;;;;;;;17.45;10.20;;;15.20;42.40;;;;;;5033878;28;20024;-75
2021/03/25 10:58:58;;;;;;;18.33;11.00;;;15.30;41.50;;;;;;5033707;28;20025;-75
2021/03/25 11:01:30;;;;;;;16.25;12.07;;;15.40;43.10;;;;;;5032923;28;20389;-75
2021/03/25 11:03:57;;;;;;;15.63;11.43;;;15.50;40.80;;;;;;5033959;28;20384;-75
2021/03/25 11:06:30;;;;;;;18.00;12.70;;;15.50;40.50;;;;;;5033588;28;20091;-76
2021/03/25 11:09:09;;;;;;;16.17;12.32;;;15.60;41.30;;;;;;5033537;28;20079;-79
2021/03/25 11:11:37;;;;;;;19.80;12.68;;;15.60;42.00;;;;;;5033834;28;20028;-75
2021/03/25 11:14:02;;;;;;;21.35;12.30;;;15.70;41.60;;;;;;5033756;28;20067;-75
2021/03/25 11:16:30;;;;;;;22.30;12.10;;;15.70;41.90;;;;;;5033472;28;20049;-76
2021/03/25 11:19:07;;;;;;;17.45;12.38;;;15.80;41.80;;;;;;5033465;28;20088;-75
2021/03/25 11:21:39;;;;;;;16.70;11.98;;;15.90;40.70;;;;;;5033512;28;20040;-75
2021/03/25 11:24:16;;;;;;;20.50;13.93;;;15.90;40.30;;;;;;5033456;28;20032;-76
2021/03/25 11:26:42;;;;;;;22.10;13.18;;;16.00;38.90;;;;;;5033515;28;20025;-75
2021/03/25 11:29:09;;;;;;;21.13;14.02;;;16.00;40.30;;;;;;5033280;28;20029;-75
2021/03/25 11:31:36;;;;;;;30.90;15.65;;;16.00;40.00;;;;;;5032994;28;20093;-77
2021/03/25 11:34:03;;;;;;;18.45;13.18;;;16.10;41.40;;;;;;5033171;28;20030;-75
2021/03/25 11:36:45;;;;;;;18.38;14.32;;;16.10;38.90;;;;;;5033120;28;20075;-76
2021/03/25 11:39:24;;;;;;;17.42;14.10;;;16.20;39.80;;;;;;5032957;28;20029;-75
2021/03/25 11:41:53;;;;;;;20.65;14.13;;;16.20;40.60;;;;;;5033345;28;20031;-75
2021/03/25 11:44:48;;;;;;;21.48;13.27;;;16.20;40.80;;;;;;5033332;28;20040;-75
2021/03/25 11:47:24;;;;;;;19.90;13.98;;;16.30;40.70;;;;;;5026353;28;20360;-76
2021/03/25 11:49:50;;;;;;;18.88;13.52;;;16.40;41.60;;;;;;5011849;28;20072;-75
2021/03/25 11:52:17;;;;;;;19.25;14.48;;;16.40;40.60;;;;;;5011687;28;20208;-75
2021/03/25 11:54:43;;;;;;;20.02;13.95;;;16.50;41.20;;;;;;5012043;28;20418;-75
2021/03/25 11:57:23;;;;;;;15.57;12.50;;;16.50;40.80;;;;;;5013174;28;20483;-75
2021/03/25 12:00:02;;;;;;;21.63;14.43;;;16.50;41.90;;;;;;5013278;28;20032;-75
2021/03/25 12:02:31;;;;;;;23.00;13.00;;;16.60;40.00;;;;;;5013006;28;20029;-75
2021/03/25 12:05:17;;;;;;;17.80;12.88;;;16.60;41.80;;;;;;5013120;28;20482;-75
2021/03/25 12:07:42;;;;;;;19.67;14.30;;;16.70;43.00;;;;;;5013051;28;20105;-75
2021/03/25 12:10:43;;;;;;;19.08;12.93;;;16.80;41.00;;;;;;5013050;28;20105;-76
2021/03/25 12:13:11;;;;;;;20.42;12.85;;;16.90;39.70;;;;;;5014585;28;20393;-76
2021/03/25 12:15:36;;;;;;;19.20;13.65;;;16.90;40.70;;;;;;5016862;28;20022;-76
2021/03/25 12:18:06;;;;;;;16.08;11.73;;;17.00;39.10;;;;;;5016636;28;20145;-76
2021/03/25 12:20:37;;;;;;;25.35;13.43;;;17.00;40.30;;;;;;5016700;28;20030;-78
2021/03/25 12:23:19;;;;;;;20.98;12.80;;;17.10;40.40;;;;;;5016981;28;20061;-75
2021/03/25 12:25:48;;;;;;;21.85;13.40;;;17.10;39.60;;;;;;5017029;28;20034;-76
2021/03/25 12:28:15;;;;;;;18.30;13.40;;;17.10;39.20;;;;;;4999427;28;20466;-77
2021/03/25 12:30:41;;;;;;;22.67;13.55;;;17.20;39.70;;;;;;5016902;28;20061;-75
2021/03/25 12:33:07;;;;;;;21.20;12.73;;;17.20;39.50;;;;;;5016287;28;20026;-76
2021/03/25 12:35:32;;;;;;;20.45;13.68;;;17.20;39.00;;;;;;5016455;28;20105;-76
2021/03/25 12:37:58;;;;;;;23.40;13.65;;;17.20;39.60;;;;;;5016633;28;20117;-76
2021/03/25 12:40:25;;;;;;;19.17;12.85;;;17.30;38.70;;;;;;5016734;28;20029;-76
2021/03/25 12:42:52;;;;;;;24.25;13.27;;;17.30;37.90;;;;;;5016332;28;20030;-79
2021/03/25 12:45:35;;;;;;;20.85;12.75;;;17.30;38.00;;;;;;5016263;28;20050;-79
2021/03/25 12:48:02;;;;;;;18.58;11.85;;;17.20;37.70;;;;;;5016088;28;20026;-79
2021/03/25 12:50:28;;;;;;;19.50;12.80;;;17.10;36.80;;;;;;5016616;28;20026;-79
2021/03/25 12:52:55;;;;;;;21.23;13.60;;;16.90;37.30;;;;;;4998892;28;20421;-80
2021/03/25 12:55:22;;;;;;;19.88;12.40;;;16.90;39.10;;;;;;5022534;28;20081;-79
2021/03/25 12:57:49;;;;;;;22.30;13.05;;;16.80;38.70;;;;;;5004613;28;20022;-80
2021/03/25 13:00:26;;;;;;;17.88;12.25;;;16.70;38.80;;;;;;5023122;28;20071;-79
2021/03/25 13:02:52;;;;;;;21.83;12.73;;;16.70;38.40;;;;;;5025886;28;20030;-79
2021/03/25 13:05:20;;;;;;;17.23;12.73;;;16.70;38.70;;;;;;5022828;28;20028;-76
2021/03/25 13:07:46;;;;;;;19.42;12.73;;;16.60;38.60;;;;;;5015910;28;20030;-76
2021/03/25 13:10:12;;;;;;;18.42;13.57;;;16.60;37.90;;;;;;5015743;28;20504;-77
2021/03/25 13:12:38;;;;;;;16.08;12.02;;;16.60;37.10;;;;;;5017213;28;20018;-76
2021/03/25 13:15:06;;;;;;;19.67;12.55;;;16.50;38.30;;;;;;5016346;28;20026;-76
2021/03/25 13:17:31;;;;;;;18.55;12.30;;;16.50;38.10;;;;;;5014686;28;20108;-76